sensor_id;sensor_type;location;lat;lon;timestamp;P1;durP1;ratioP1;P2;durP2;ratioP2
7338;SDS011;33747;49.524;8.390;2023-03-01T00:01:47;18.95;;;10.63;;
7338;SDS011;33747;49.524;8.390;2023-03-01T00:04:12;17.02;;;9.32;;
7338;SDS011;33747;49.524;8.390;2023-03-01T00:06:38;17.10;;;9.75;;
7338;SDS011;33747;49.524;8.390;2023-03-01T00:09:03;17.27;;;9.45;;
7338;SDS011;33747;49.524;8.390;2023-03-01T00:11:30;16.40;;;8.93;;
7338;SDS011;33747;49.524;8.390;2023-03-01T00:13:57;14.57;;;8.82;;
7338;SDS011;33747;49.524;8.390;2023-03-01T00:16:25;19.10;;;9.43;;
7338;SDS011;33747;49.524;8.390;2023-03-01T00:18:53;15.93;;;9.10;;
7338;SDS011;33747;49.524;8.390;2023-03-01T00:21:19;16.10;;;9.35;;
7338;SDS011;33747;49.524;8.390;2023-03-01T00:23:46;15.65;;;9.63;;
7338;SDS011;33747;49.524;8.390;2023-03-01T00:26:14;15.68;;;9.32;;
7338;SDS011;33747;49.524;8.390;2023-03-01T00:28:40;18.33;;;9.02;;
7338;SDS011;33747;49.524;8.390;2023-03-01T00:31:06;17.27;;;10.07;;
7338;SDS011;33747;49.524;8.390;2023-03-01T00:33:33;13.98;;;9.32;;
7338;SDS011;33747;49.524;8.390;2023-03-01T00:35:59;17.88;;;9.27;;
7338;SDS011;33747;49.524;8.390;2023-03-01T00:38:24;13.52;;;8.90;;
7338;SDS011;33747;49.524;8.390;2023-03-01T00:40:50;16.63;;;9.73;;
7338;SDS011;33747;49.524;8.390;2023-03-01T00:43:15;13.20;;;9.80;;
7338;SDS011;33747;49.524;8.390;2023-03-01T00:45:41;14.80;;;9.20;;
7338;SDS011;33747;49.524;8.390;2023-03-01T00:48:06;15.45;;;9.15;;
7338;SDS011;33747;49.524;8.390;2023-03-01T00:50:31;17.08;;;9.77;;
7338;SDS011;33747;49.524;8.390;2023-03-01T00:52:57;16.25;;;9.45;;
7338;SDS011;33747;49.524;8.390;2023-03-01T00:55:22;16.35;;;9.95;;
7338;SDS011;33747;49.524;8.390;2023-03-01T00:57:48;19.63;;;9.15;;
7338;SDS011;33747;49.524;8.390;2023-03-01T01:00:14;16.98;;;9.15;;
7338;SDS011;33747;49.524;8.390;2023-03-01T01:02:39;15.82;;;8.95;;
7338;SDS011;33747;49.524;8.390;2023-03-01T01:05:05;17.45;;;9.95;;
7338;SDS011;33747;49.524;8.390;2023-03-01T01:07:31;14.32;;;9.43;;
7338;SDS011;33747;49.524;8.390;2023-03-01T01:09:57;15.45;;;9.63;;
7338;SDS011;33747;49.524;8.390;2023-03-01T01:12:22;18.55;;;9.20;;
7338;SDS011;33747;49.524;8.390;2023-03-01T01:14:48;15.18;;;9.55;;
7338;SDS011;33747;49.524;8.390;2023-03-01T01:17:13;16.45;;;10.07;;
7338;SDS011;33747;49.524;8.390;2023-03-01T01:19:38;15.32;;;10.57;;
7338;SDS011;33747;49.524;8.390;2023-03-01T01:22:04;14.25;;;9.02;;
7338;SDS011;33747;49.524;8.390;2023-03-01T01:24:29;17.25;;;9.75;;
7338;SDS011;33747;49.524;8.390;2023-03-01T01:26:55;23.95;;;11.43;;
7338;SDS011;33747;49.524;8.390;2023-03-01T01:29:20;21.13;;;10.23;;
7338;SDS011;33747;49.524;8.390;2023-03-01T01:31:46;21.20;;;11.02;;
7338;SDS011;33747;49.524;8.390;2023-03-01T01:34:13;17.00;;;9.90;;
7338;SDS011;33747;49.524;8.390;2023-03-01T01:36:43;24.33;;;11.70;;
7338;SDS011;33747;49.524;8.390;2023-03-01T01:39:08;20.30;;;10.20;;
7338;SDS011;33747;49.524;8.390;2023-03-01T01:41:37;21.90;;;11.27;;
7338;SDS011;33747;49.524;8.390;2023-03-01T01:44:23;16.02;;;9.95;;
7338;SDS011;33747;49.524;8.390;2023-03-01T01:49:38;16.38;;;10.73;;
7338;SDS011;33747;49.524;8.390;2023-03-01T01:52:13;20.60;;;10.73;;
7338;SDS011;33747;49.524;8.390;2023-03-01T01:54:50;18.67;;;10.32;;
7338;SDS011;33747;49.524;8.390;2023-03-01T01:57:20;17.25;;;9.45;;
7338;SDS011;33747;49.524;8.390;2023-03-01T01:59:49;14.98;;;10.48;;
7338;SDS011;33747;49.524;8.390;2023-03-01T02:02:17;18.73;;;10.07;;
7338;SDS011;33747;49.524;8.390;2023-03-01T02:04:43;19.48;;;10.52;;
7338;SDS011;33747;49.524;8.390;2023-03-01T02:07:13;15.52;;;10.93;;
7338;SDS011;33747;49.524;8.390;2023-03-01T02:09:42;19.00;;;11.20;;
7338;SDS011;33747;49.524;8.390;2023-03-01T02:12:11;24.83;;;10.50;;
7338;SDS011;33747;49.524;8.390;2023-03-01T02:14:38;18.95;;;11.32;;
7338;SDS011;33747;49.524;8.390;2023-03-01T02:17:03;21.48;;;11.70;;
7338;SDS011;33747;49.524;8.390;2023-03-01T02:22:12;17.00;;;10.50;;
7338;SDS011;33747;49.524;8.390;2023-03-01T02:25:04;17.88;;;10.30;;
7338;SDS011;33747;49.524;8.390;2023-03-01T02:30:33;18.02;;;10.48;;
7338;SDS011;33747;49.524;8.390;2023-03-01T02:32:59;19.67;;;11.57;;
7338;SDS011;33747;49.524;8.390;2023-03-01T02:35:27;18.33;;;11.35;;
7338;SDS011;33747;49.524;8.390;2023-03-01T02:37:54;15.75;;;11.50;;
7338;SDS011;33747;49.524;8.390;2023-03-01T02:40:22;34.35;;;11.52;;
7338;SDS011;33747;49.524;8.390;2023-03-01T02:42:56;21.70;;;11.82;;
7338;SDS011;33747;49.524;8.390;2023-03-01T02:45:22;17.15;;;11.77;;
7338;SDS011;33747;49.524;8.390;2023-03-01T02:47:48;29.25;;;12.02;;
7338;SDS011;33747;49.524;8.390;2023-03-01T02:55:47;20.77;;;10.65;;
7338;SDS011;33747;49.524;8.390;2023-03-01T02:58:13;19.90;;;12.20;;
7338;SDS011;33747;49.524;8.390;2023-03-01T03:00:39;22.58;;;12.80;;
7338;SDS011;33747;49.524;8.390;2023-03-01T03:03:17;17.27;;;10.90;;
7338;SDS011;33747;49.524;8.390;2023-03-01T03:08:09;17.63;;;11.70;;
7338;SDS011;33747;49.524;8.390;2023-03-01T03:10:37;17.48;;;10.55;;
7338;SDS011;33747;49.524;8.390;2023-03-01T03:13:11;17.35;;;11.02;;
7338;SDS011;33747;49.524;8.390;2023-03-01T03:15:38;18.00;;;11.32;;
7338;SDS011;33747;49.524;8.390;2023-03-01T03:18:05;20.67;;;12.50;;
7338;SDS011;33747;49.524;8.390;2023-03-01T03:20:32;20.15;;;11.38;;
7338;SDS011;33747;49.524;8.390;2023-03-01T03:22:57;19.75;;;12.05;;
7338;SDS011;33747;49.524;8.390;2023-03-01T03:25:24;19.40;;;12.55;;
7338;SDS011;33747;49.524;8.390;2023-03-01T03:27:50;19.65;;;12.43;;
7338;SDS011;33747;49.524;8.390;2023-03-01T03:30:21;14.77;;;9.30;;
7338;SDS011;33747;49.524;8.390;2023-03-01T03:32:48;21.85;;;12.13;;
7338;SDS011;33747;49.524;8.390;2023-03-01T03:35:20;20.40;;;11.63;;
7338;SDS011;33747;49.524;8.390;2023-03-01T03:37:47;22.38;;;13.00;;
7338;SDS011;33747;49.524;8.390;2023-03-01T03:40:30;18.40;;;11.43;;
7338;SDS011;33747;49.524;8.390;2023-03-01T03:43:00;19.95;;;11.77;;
7338;SDS011;33747;49.524;8.390;2023-03-01T03:45:26;23.83;;;12.77;;
7338;SDS011;33747;49.524;8.390;2023-03-01T03:47:51;21.55;;;11.80;;
7338;SDS011;33747;49.524;8.390;2023-03-01T03:50:17;23.42;;;12.73;;
7338;SDS011;33747;49.524;8.390;2023-03-01T03:52:43;18.60;;;11.38;;
7338;SDS011;33747;49.524;8.390;2023-03-01T03:55:09;23.80;;;13.43;;
7338;SDS011;33747;49.524;8.390;2023-03-01T03:57:39;27.42;;;13.05;;
7338;SDS011;33747;49.524;8.390;2023-03-01T04:00:06;20.30;;;11.82;;
7338;SDS011;33747;49.524;8.390;2023-03-01T04:02:40;23.13;;;13.70;;
7338;SDS011;33747;49.524;8.390;2023-03-01T04:05:07;21.88;;;13.55;;
7338;SDS011;33747;49.524;8.390;2023-03-01T04:07:33;22.50;;;13.13;;
7338;SDS011;33747;49.524;8.390;2023-03-01T04:10:02;23.98;;;12.80;;
7338;SDS011;33747;49.524;8.390;2023-03-01T04:12:28;21.52;;;12.27;;
7338;SDS011;33747;49.524;8.390;2023-03-01T04:14:54;26.25;;;13.23;;
7338;SDS011;33747;49.524;8.390;2023-03-01T04:17:19;20.15;;;11.95;;
7338;SDS011;33747;49.524;8.390;2023-03-01T04:19:45;19.27;;;12.40;;
7338;SDS011;33747;49.524;8.390;2023-03-01T04:22:13;20.35;;;12.45;;
7338;SDS011;33747;49.524;8.390;2023-03-01T04:24:42;23.30;;;13.20;;
7338;SDS011;33747;49.524;8.390;2023-03-01T04:27:08;25.38;;;13.73;;
7338;SDS011;33747;49.524;8.390;2023-03-01T04:29:33;23.20;;;14.20;;
7338;SDS011;33747;49.524;8.390;2023-03-01T04:31:59;26.58;;;13.57;;
7338;SDS011;33747;49.524;8.390;2023-03-01T04:34:28;19.35;;;13.23;;
7338;SDS011;33747;49.524;8.390;2023-03-01T04:36:54;24.23;;;12.20;;
7338;SDS011;33747;49.524;8.390;2023-03-01T04:39:19;21.95;;;13.52;;
7338;SDS011;33747;49.524;8.390;2023-03-01T04:41:44;21.65;;;13.65;;
7338;SDS011;33747;49.524;8.390;2023-03-01T04:44:10;24.05;;;13.55;;
7338;SDS011;33747;49.524;8.390;2023-03-01T04:46:35;21.90;;;12.55;;
7338;SDS011;33747;49.524;8.390;2023-03-01T04:49:01;21.58;;;12.27;;
7338;SDS011;33747;49.524;8.390;2023-03-01T04:51:28;21.42;;;12.65;;
7338;SDS011;33747;49.524;8.390;2023-03-01T04:53:53;22.50;;;13.18;;
7338;SDS011;33747;49.524;8.390;2023-03-01T04:56:19;23.83;;;14.20;;
7338;SDS011;33747;49.524;8.390;2023-03-01T04:58:45;23.40;;;14.10;;
7338;SDS011;33747;49.524;8.390;2023-03-01T05:01:17;25.00;;;12.88;;
7338;SDS011;33747;49.524;8.390;2023-03-01T05:03:48;25.48;;;12.50;;
7338;SDS011;33747;49.524;8.390;2023-03-01T05:06:14;24.42;;;13.98;;
7338;SDS011;33747;49.524;8.390;2023-03-01T05:08:40;25.65;;;14.25;;
7338;SDS011;33747;49.524;8.390;2023-03-01T05:11:06;27.45;;;14.30;;
7338;SDS011;33747;49.524;8.390;2023-03-01T05:13:33;25.95;;;14.35;;
7338;SDS011;33747;49.524;8.390;2023-03-01T05:16:00;23.83;;;13.43;;
7338;SDS011;33747;49.524;8.390;2023-03-01T05:18:27;28.50;;;15.18;;
7338;SDS011;33747;49.524;8.390;2023-03-01T05:20:55;23.48;;;13.77;;
7338;SDS011;33747;49.524;8.390;2023-03-01T05:23:26;26.25;;;13.35;;
7338;SDS011;33747;49.524;8.390;2023-03-01T05:25:56;23.02;;;14.27;;
7338;SDS011;33747;49.524;8.390;2023-03-01T05:28:23;22.92;;;12.90;;
7338;SDS011;33747;49.524;8.390;2023-03-01T05:30:48;21.45;;;14.20;;
7338;SDS011;33747;49.524;8.390;2023-03-01T05:33:16;22.20;;;13.38;;
7338;SDS011;33747;49.524;8.390;2023-03-01T05:35:42;23.23;;;13.43;;
7338;SDS011;33747;49.524;8.390;2023-03-01T05:38:09;28.00;;;14.63;;
7338;SDS011;33747;49.524;8.390;2023-03-01T05:40:38;23.58;;;14.15;;
7338;SDS011;33747;49.524;8.390;2023-03-01T05:43:04;21.85;;;12.73;;
7338;SDS011;33747;49.524;8.390;2023-03-01T05:45:30;25.58;;;13.07;;
7338;SDS011;33747;49.524;8.390;2023-03-01T05:47:57;22.77;;;13.27;;
7338;SDS011;33747;49.524;8.390;2023-03-01T05:50:23;23.88;;;14.65;;
7338;SDS011;33747;49.524;8.390;2023-03-01T05:52:57;25.08;;;14.23;;
7338;SDS011;33747;49.524;8.390;2023-03-01T05:55:24;25.77;;;14.55;;
7338;SDS011;33747;49.524;8.390;2023-03-01T05:57:49;23.02;;;13.70;;
7338;SDS011;33747;49.524;8.390;2023-03-01T06:00:16;29.58;;;15.55;;
7338;SDS011;33747;49.524;8.390;2023-03-01T06:02:47;26.60;;;14.65;;
7338;SDS011;33747;49.524;8.390;2023-03-01T06:05:13;78.43;;;47.42;;
7338;SDS011;33747;49.524;8.390;2023-03-01T06:07:41;61.28;;;36.28;;
7338;SDS011;33747;49.524;8.390;2023-03-01T06:10:15;33.90;;;21.15;;
7338;SDS011;33747;49.524;8.390;2023-03-01T06:12:41;36.30;;;22.45;;
7338;SDS011;33747;49.524;8.390;2023-03-01T06:15:08;24.98;;;14.48;;
7338;SDS011;33747;49.524;8.390;2023-03-01T06:17:37;24.77;;;14.98;;
7338;SDS011;33747;49.524;8.390;2023-03-01T06:20:04;26.73;;;13.77;;
7338;SDS011;33747;49.524;8.390;2023-03-01T06:22:30;27.23;;;15.80;;
7338;SDS011;33747;49.524;8.390;2023-03-01T06:24:56;29.77;;;16.17;;
7338;SDS011;33747;49.524;8.390;2023-03-01T06:27:24;26.90;;;15.10;;
7338;SDS011;33747;49.524;8.390;2023-03-01T06:29:49;29.08;;;15.60;;
7338;SDS011;33747;49.524;8.390;2023-03-01T06:32:15;23.40;;;14.57;;
7338;SDS011;33747;49.524;8.390;2023-03-01T06:34:41;22.77;;;12.73;;
7338;SDS011;33747;49.524;8.390;2023-03-01T06:37:09;25.55;;;15.57;;
7338;SDS011;33747;49.524;8.390;2023-03-01T06:39:35;24.05;;;15.07;;
7338;SDS011;33747;49.524;8.390;2023-03-01T06:42:00;29.60;;;14.13;;
7338;SDS011;33747;49.524;8.390;2023-03-01T06:44:26;28.05;;;14.88;;
7338;SDS011;33747;49.524;8.390;2023-03-01T06:46:51;25.33;;;13.20;;
7338;SDS011;33747;49.524;8.390;2023-03-01T06:49:17;20.27;;;13.98;;
7338;SDS011;33747;49.524;8.390;2023-03-01T06:51:45;20.27;;;13.02;;
7338;SDS011;33747;49.524;8.390;2023-03-01T06:54:11;26.13;;;13.02;;
7338;SDS011;33747;49.524;8.390;2023-03-01T06:56:36;25.15;;;13.63;;
7338;SDS011;33747;49.524;8.390;2023-03-01T06:59:01;30.55;;;13.73;;
7338;SDS011;33747;49.524;8.390;2023-03-01T07:01:30;19.80;;;12.55;;
7338;SDS011;33747;49.524;8.390;2023-03-01T07:03:56;23.23;;;13.90;;
7338;SDS011;33747;49.524;8.390;2023-03-01T07:06:22;22.05;;;14.45;;
7338;SDS011;33747;49.524;8.390;2023-03-01T07:08:51;20.02;;;13.05;;
7338;SDS011;33747;49.524;8.390;2023-03-01T07:11:16;24.90;;;13.30;;
7338;SDS011;33747;49.524;8.390;2023-03-01T07:13:41;27.33;;;14.15;;
7338;SDS011;33747;49.524;8.390;2023-03-01T07:16:07;26.35;;;13.60;;
7338;SDS011;33747;49.524;8.390;2023-03-01T07:18:36;25.17;;;14.18;;
7338;SDS011;33747;49.524;8.390;2023-03-01T07:21:11;22.38;;;12.93;;
7338;SDS011;33747;49.524;8.390;2023-03-01T07:23:37;24.45;;;13.77;;
7338;SDS011;33747;49.524;8.390;2023-03-01T07:26:02;22.67;;;12.85;;
7338;SDS011;33747;49.524;8.390;2023-03-01T07:28:28;22.52;;;14.07;;
7338;SDS011;33747;49.524;8.390;2023-03-01T07:30:55;26.50;;;13.50;;
7338;SDS011;33747;49.524;8.390;2023-03-01T07:33:20;30.25;;;13.80;;
7338;SDS011;33747;49.524;8.390;2023-03-01T07:35:46;24.23;;;13.80;;
7338;SDS011;33747;49.524;8.390;2023-03-01T07:38:11;19.83;;;12.77;;
7338;SDS011;33747;49.524;8.390;2023-03-01T07:40:37;28.38;;;14.13;;
7338;SDS011;33747;49.524;8.390;2023-03-01T07:43:02;18.92;;;12.20;;
7338;SDS011;33747;49.524;8.390;2023-03-01T07:45:28;26.23;;;14.73;;
7338;SDS011;33747;49.524;8.390;2023-03-01T07:47:54;24.83;;;15.60;;
7338;SDS011;33747;49.524;8.390;2023-03-01T07:50:20;28.23;;;15.57;;
7338;SDS011;33747;49.524;8.390;2023-03-01T07:52:49;23.23;;;14.00;;
7338;SDS011;33747;49.524;8.390;2023-03-01T07:55:15;31.25;;;14.65;;
7338;SDS011;33747;49.524;8.390;2023-03-01T07:57:40;25.85;;;13.68;;
7338;SDS011;33747;49.524;8.390;2023-03-01T08:00:06;23.35;;;15.15;;
7338;SDS011;33747;49.524;8.390;2023-03-01T08:02:36;21.85;;;13.10;;
7338;SDS011;33747;49.524;8.390;2023-03-01T08:05:01;23.42;;;14.02;;
7338;SDS011;33747;49.524;8.390;2023-03-01T08:07:26;23.85;;;13.23;;
7338;SDS011;33747;49.524;8.390;2023-03-01T08:09:52;25.67;;;14.57;;
7338;SDS011;33747;49.524;8.390;2023-03-01T08:12:17;26.33;;;14.38;;
7338;SDS011;33747;49.524;8.390;2023-03-01T08:14:43;22.33;;;14.48;;
7338;SDS011;33747;49.524;8.390;2023-03-01T08:17:08;24.17;;;14.68;;
7338;SDS011;33747;49.524;8.390;2023-03-01T08:19:34;20.30;;;14.02;;
7338;SDS011;33747;49.524;8.390;2023-03-01T08:21:59;30.05;;;14.90;;
7338;SDS011;33747;49.524;8.390;2023-03-01T08:24:26;21.08;;;13.57;;
7338;SDS011;33747;49.524;8.390;2023-03-01T08:26:52;23.60;;;14.20;;
7338;SDS011;33747;49.524;8.390;2023-03-01T08:29:17;25.77;;;13.88;;
7338;SDS011;33747;49.524;8.390;2023-03-01T08:31:43;24.10;;;13.82;;
7338;SDS011;33747;49.524;8.390;2023-03-01T08:34:10;18.90;;;11.52;;
7338;SDS011;33747;49.524;8.390;2023-03-01T08:36:42;23.23;;;12.65;;
7338;SDS011;33747;49.524;8.390;2023-03-01T08:39:10;23.85;;;14.00;;
7338;SDS011;33747;49.524;8.390;2023-03-01T08:41:39;23.52;;;14.55;;
7338;SDS011;33747;49.524;8.390;2023-03-01T08:44:05;22.65;;;13.30;;
7338;SDS011;33747;49.524;8.390;2023-03-01T08:46:32;22.40;;;14.10;;
7338;SDS011;33747;49.524;8.390;2023-03-01T08:49:05;26.55;;;14.60;;
7338;SDS011;33747;49.524;8.390;2023-03-01T08:51:32;25.95;;;13.60;;
7338;SDS011;33747;49.524;8.390;2023-03-01T08:54:01;24.42;;;13.32;;
7338;SDS011;33747;49.524;8.390;2023-03-01T08:56:30;22.20;;;13.80;;
7338;SDS011;33747;49.524;8.390;2023-03-01T08:58:56;21.90;;;13.82;;
7338;SDS011;33747;49.524;8.390;2023-03-01T09:01:21;23.65;;;16.42;;
7338;SDS011;33747;49.524;8.390;2023-03-01T09:03:47;24.88;;;14.10;;
7338;SDS011;33747;49.524;8.390;2023-03-01T09:06:13;26.60;;;14.60;;
7338;SDS011;33747;49.524;8.390;2023-03-01T09:08:42;22.35;;;14.88;;
7338;SDS011;33747;49.524;8.390;2023-03-01T09:11:13;27.10;;;14.40;;
7338;SDS011;33747;49.524;8.390;2023-03-01T09:13:43;25.90;;;15.18;;
7338;SDS011;33747;49.524;8.390;2023-03-01T09:16:10;24.08;;;14.90;;
7338;SDS011;33747;49.524;8.390;2023-03-01T09:18:36;24.95;;;14.93;;
7338;SDS011;33747;49.524;8.390;2023-03-01T09:23:34;24.75;;;14.73;;
7338;SDS011;33747;49.524;8.390;2023-03-01T09:28:33;22.73;;;14.00;;
7338;SDS011;33747;49.524;8.390;2023-03-01T09:30:59;26.35;;;15.30;;
7338;SDS011;33747;49.524;8.390;2023-03-01T09:33:25;19.08;;;12.65;;
7338;SDS011;33747;49.524;8.390;2023-03-01T09:35:58;26.20;;;14.98;;
7338;SDS011;33747;49.524;8.390;2023-03-01T09:38:24;28.45;;;15.30;;
7338;SDS011;33747;49.524;8.390;2023-03-01T09:40:50;27.10;;;16.00;;
7338;SDS011;33747;49.524;8.390;2023-03-01T09:43:18;26.67;;;15.23;;
7338;SDS011;33747;49.524;8.390;2023-03-01T09:45:46;27.52;;;16.05;;
7338;SDS011;33747;49.524;8.390;2023-03-01T09:48:15;25.63;;;14.55;;
7338;SDS011;33747;49.524;8.390;2023-03-01T09:50:43;25.63;;;15.82;;
7338;SDS011;33747;49.524;8.390;2023-03-01T09:53:16;28.38;;;15.20;;
7338;SDS011;33747;49.524;8.390;2023-03-01T09:55:44;24.92;;;16.23;;
7338;SDS011;33747;49.524;8.390;2023-03-01T09:58:25;27.65;;;16.20;;
7338;SDS011;33747;49.524;8.390;2023-03-01T10:01:02;21.33;;;12.45;;
7338;SDS011;33747;49.524;8.390;2023-03-01T10:04:00;26.38;;;15.05;;
7338;SDS011;33747;49.524;8.390;2023-03-01T10:06:30;22.23;;;14.35;;
7338;SDS011;33747;49.524;8.390;2023-03-01T10:11:58;26.67;;;16.27;;
7338;SDS011;33747;49.524;8.390;2023-03-01T10:17:03;25.35;;;15.55;;
7338;SDS011;33747;49.524;8.390;2023-03-01T10:19:44;27.10;;;15.52;;
7338;SDS011;33747;49.524;8.390;2023-03-01T10:22:12;25.30;;;15.20;;
7338;SDS011;33747;49.524;8.390;2023-03-01T10:24:40;23.00;;;14.63;;
7338;SDS011;33747;49.524;8.390;2023-03-01T10:27:22;22.90;;;14.52;;
7338;SDS011;33747;49.524;8.390;2023-03-01T10:32:31;26.15;;;15.70;;
7338;SDS011;33747;49.524;8.390;2023-03-01T10:34:57;28.85;;;15.18;;
7338;SDS011;33747;49.524;8.390;2023-03-01T10:37:23;27.23;;;14.65;;
7338;SDS011;33747;49.524;8.390;2023-03-01T10:39:56;30.38;;;15.45;;
7338;SDS011;33747;49.524;8.390;2023-03-01T10:42:28;25.13;;;15.77;;
7338;SDS011;33747;49.524;8.390;2023-03-01T10:44:56;24.80;;;16.25;;
7338;SDS011;33747;49.524;8.390;2023-03-01T10:47:26;23.65;;;15.57;;
7338;SDS011;33747;49.524;8.390;2023-03-01T10:52:18;26.33;;;16.20;;
7338;SDS011;33747;49.524;8.390;2023-03-01T10:54:56;24.98;;;15.70;;
7338;SDS011;33747;49.524;8.390;2023-03-01T10:57:28;29.15;;;16.90;;
7338;SDS011;33747;49.524;8.390;2023-03-01T11:00:23;24.55;;;16.95;;
7338;SDS011;33747;49.524;8.390;2023-03-01T11:05:23;27.48;;;17.42;;
7338;SDS011;33747;49.524;8.390;2023-03-01T11:07:50;29.65;;;18.92;;
7338;SDS011;33747;49.524;8.390;2023-03-01T11:10:21;35.03;;;19.30;;
7338;SDS011;33747;49.524;8.390;2023-03-01T11:12:48;31.60;;;17.00;;
7338;SDS011;33747;49.524;8.390;2023-03-01T11:15:23;25.08;;;15.77;;
7338;SDS011;33747;49.524;8.390;2023-03-01T11:17:52;23.10;;;13.95;;
7338;SDS011;33747;49.524;8.390;2023-03-01T11:20:32;24.73;;;14.68;;
7338;SDS011;33747;49.524;8.390;2023-03-01T11:23:04;26.23;;;15.20;;
7338;SDS011;33747;49.524;8.390;2023-03-01T11:26:07;23.85;;;16.05;;
7338;SDS011;33747;49.524;8.390;2023-03-01T11:28:24;22.45;;;15.32;;
7338;SDS011;33747;49.524;8.390;2023-03-01T11:38:54;28.75;;;15.30;;
7338;SDS011;33747;49.524;8.390;2023-03-01T11:41:21;22.83;;;14.30;;
7338;SDS011;33747;49.524;8.390;2023-03-01T11:43:57;23.63;;;14.52;;
7338;SDS011;33747;49.524;8.390;2023-03-01T11:51:49;21.75;;;14.50;;
7338;SDS011;33747;49.524;8.390;2023-03-01T11:57:33;21.02;;;13.95;;
7338;SDS011;33747;49.524;8.390;2023-03-01T12:00:23;25.77;;;15.43;;
7338;SDS011;33747;49.524;8.390;2023-03-01T12:23:09;21.58;;;14.30;;
7338;SDS011;33747;49.524;8.390;2023-03-01T12:28:10;22.85;;;13.63;;
7338;SDS011;33747;49.524;8.390;2023-03-01T12:48:13;19.27;;;13.10;;
7338;SDS011;33747;49.524;8.390;2023-03-01T12:51:07;21.35;;;14.13;;
7338;SDS011;33747;49.524;8.390;2023-03-01T12:53:36;23.50;;;13.77;;
7338;SDS011;33747;49.524;8.390;2023-03-01T12:56:06;22.63;;;14.55;;
7338;SDS011;33747;49.524;8.390;2023-03-01T13:04:28;24.52;;;12.65;;
7338;SDS011;33747;49.524;8.390;2023-03-01T13:17:49;20.75;;;13.50;;
7338;SDS011;33747;49.524;8.390;2023-03-01T13:20:16;22.58;;;12.30;;
7338;SDS011;33747;49.524;8.390;2023-03-01T13:22:42;24.20;;;12.15;;
7338;SDS011;33747;49.524;8.390;2023-03-01T13:25:15;22.45;;;12.93;;
7338;SDS011;33747;49.524;8.390;2023-03-01T13:27:44;16.83;;;11.63;;
7338;SDS011;33747;49.524;8.390;2023-03-01T13:33:32;23.58;;;11.05;;
7338;SDS011;33747;49.524;8.390;2023-03-01T13:35:56;21.73;;;12.93;;
7338;SDS011;33747;49.524;8.390;2023-03-01T13:46:38;20.35;;;13.52;;
7338;SDS011;33747;49.524;8.390;2023-03-01T13:49:03;19.48;;;10.60;;
7338;SDS011;33747;49.524;8.390;2023-03-01T13:51:28;22.73;;;12.00;;
7338;SDS011;33747;49.524;8.390;2023-03-01T13:53:55;16.15;;;11.88;;
7338;SDS011;33747;49.524;8.390;2023-03-01T13:56:24;23.27;;;12.80;;
7338;SDS011;33747;49.524;8.390;2023-03-01T13:58:58;14.07;;;10.15;;
7338;SDS011;33747;49.524;8.390;2023-03-01T14:01:31;19.98;;;11.77;;
7338;SDS011;33747;49.524;8.390;2023-03-01T14:03:58;18.05;;;11.43;;
7338;SDS011;33747;49.524;8.390;2023-03-01T14:06:25;18.30;;;12.43;;
7338;SDS011;33747;49.524;8.390;2023-03-01T14:22:54;17.73;;;11.52;;
7338;SDS011;33747;49.524;8.390;2023-03-01T14:28:02;22.27;;;10.55;;
7338;SDS011;33747;49.524;8.390;2023-03-01T14:30:44;16.73;;;10.15;;
7338;SDS011;33747;49.524;8.390;2023-03-01T14:33:18;15.82;;;10.05;;
7338;SDS011;33747;49.524;8.390;2023-03-01T14:36:05;20.55;;;11.23;;
7338;SDS011;33747;49.524;8.390;2023-03-01T14:38:35;15.98;;;10.27;;
7338;SDS011;33747;49.524;8.390;2023-03-01T14:41:09;16.98;;;9.88;;
7338;SDS011;33747;49.524;8.390;2023-03-01T14:43:41;13.82;;;9.25;;
7338;SDS011;33747;49.524;8.390;2023-03-01T14:49:10;17.88;;;9.52;;
7338;SDS011;33747;49.524;8.390;2023-03-01T14:51:42;18.65;;;10.02;;
7338;SDS011;33747;49.524;8.390;2023-03-01T14:54:19;22.90;;;9.82;;
7338;SDS011;33747;49.524;8.390;2023-03-01T14:56:46;14.27;;;8.98;;
7338;SDS011;33747;49.524;8.390;2023-03-01T14:59:11;14.80;;;8.63;;
7338;SDS011;33747;49.524;8.390;2023-03-01T15:01:39;19.40;;;8.07;;
7338;SDS011;33747;49.524;8.390;2023-03-01T15:04:06;14.82;;;7.78;;
7338;SDS011;33747;49.524;8.390;2023-03-01T15:06:32;12.88;;;8.23;;
7338;SDS011;33747;49.524;8.390;2023-03-01T15:08:57;13.90;;;9.23;;
7338;SDS011;33747;49.524;8.390;2023-03-01T15:11:25;12.50;;;8.50;;
7338;SDS011;33747;49.524;8.390;2023-03-01T15:13:53;11.77;;;8.45;;
7338;SDS011;33747;49.524;8.390;2023-03-01T15:16:40;12.45;;;8.18;;
7338;SDS011;33747;49.524;8.390;2023-03-01T15:19:06;12.65;;;7.32;;
7338;SDS011;33747;49.524;8.390;2023-03-01T15:21:32;10.65;;;7.47;;
7338;SDS011;33747;49.524;8.390;2023-03-01T15:26:32;13.73;;;7.97;;
7338;SDS011;33747;49.524;8.390;2023-03-01T15:29:01;10.60;;;7.22;;
7338;SDS011;33747;49.524;8.390;2023-03-01T15:31:36;12.10;;;7.40;;
7338;SDS011;33747;49.524;8.390;2023-03-01T15:34:07;11.75;;;7.57;;
7338;SDS011;33747;49.524;8.390;2023-03-01T15:36:39;15.93;;;8.25;;
7338;SDS011;33747;49.524;8.390;2023-03-01T15:42:02;15.10;;;6.87;;
7338;SDS011;33747;49.524;8.390;2023-03-01T15:44:33;13.35;;;7.78;;
7338;SDS011;33747;49.524;8.390;2023-03-01T15:47:00;11.45;;;7.78;;
7338;SDS011;33747;49.524;8.390;2023-03-01T15:49:35;9.23;;;6.90;;
7338;SDS011;33747;49.524;8.390;2023-03-01T15:52:03;8.88;;;6.32;;
7338;SDS011;33747;49.524;8.390;2023-03-01T15:54:28;25.50;;;6.65;;
7338;SDS011;33747;49.524;8.390;2023-03-01T15:56:54;10.82;;;7.25;;
7338;SDS011;33747;49.524;8.390;2023-03-01T15:59:19;13.43;;;7.97;;
7338;SDS011;33747;49.524;8.390;2023-03-01T16:01:47;11.60;;;7.72;;
7338;SDS011;33747;49.524;8.390;2023-03-01T16:04:13;10.18;;;7.22;;
7338;SDS011;33747;49.524;8.390;2023-03-01T16:06:47;12.75;;;8.05;;
7338;SDS011;33747;49.524;8.390;2023-03-01T16:09:18;15.60;;;7.05;;
7338;SDS011;33747;49.524;8.390;2023-03-01T16:11:45;11.30;;;7.50;;
7338;SDS011;33747;49.524;8.390;2023-03-01T16:14:10;10.88;;;7.82;;
7338;SDS011;33747;49.524;8.390;2023-03-01T16:16:35;14.18;;;7.88;;
7338;SDS011;33747;49.524;8.390;2023-03-01T16:19:01;11.10;;;7.32;;
7338;SDS011;33747;49.524;8.390;2023-03-01T16:21:26;10.68;;;7.35;;
7338;SDS011;33747;49.524;8.390;2023-03-01T16:23:52;12.43;;;6.80;;
7338;SDS011;33747;49.524;8.390;2023-03-01T16:26:17;14.05;;;7.00;;
7338;SDS011;33747;49.524;8.390;2023-03-01T16:28:43;14.40;;;8.55;;
7338;SDS011;33747;49.524;8.390;2023-03-01T16:31:10;13.68;;;7.97;;
7338;SDS011;33747;49.524;8.390;2023-03-01T16:33:35;12.18;;;7.60;;
7338;SDS011;33747;49.524;8.390;2023-03-01T16:36:06;18.52;;;9.40;;
7338;SDS011;33747;49.524;8.390;2023-03-01T16:38:35;16.55;;;8.45;;
7338;SDS011;33747;49.524;8.390;2023-03-01T16:41:01;14.07;;;7.95;;
7338;SDS011;33747;49.524;8.390;2023-03-01T16:43:26;20.73;;;8.88;;
7338;SDS011;33747;49.524;8.390;2023-03-01T16:45:52;17.02;;;9.73;;
7338;SDS011;33747;49.524;8.390;2023-03-01T16:48:17;27.00;;;17.30;;
7338;SDS011;33747;49.524;8.390;2023-03-01T16:50:43;31.75;;;19.50;;
7338;SDS011;33747;49.524;8.390;2023-03-01T16:53:08;12.68;;;8.85;;
7338;SDS011;33747;49.524;8.390;2023-03-01T16:55:34;15.00;;;9.35;;
7338;SDS011;33747;49.524;8.390;2023-03-01T16:57:59;17.00;;;8.80;;
7338;SDS011;33747;49.524;8.390;2023-03-01T17:00:25;15.45;;;9.50;;
7338;SDS011;33747;49.524;8.390;2023-03-01T17:02:50;17.23;;;9.13;;
7338;SDS011;33747;49.524;8.390;2023-03-01T17:05:16;14.52;;;9.18;;
7338;SDS011;33747;49.524;8.390;2023-03-01T17:07:42;12.77;;;8.23;;
7338;SDS011;33747;49.524;8.390;2023-03-01T17:10:08;18.65;;;9.80;;